bureau de piste

Plus d’information sur les terrains : LFMD et VALBERG

METAR LFMD 171300Z AUTO 16007KT 120V190 CAVOK 28/17 Q1012 NOSIG

TAF LFMD 170800Z 1709/1809 16010KT CAVOK   BECMG 1720/1722 35005KT   TEMPO 1720/1808 BKN014   BECMG 1807/1809 15010KT

INFORMATION ADDS - 1310 UTC 17 Jul 2019

Les commentaires sont clos.